Ceres, Washington
Current Conditions -  °F | °C
As of 2:55 AM on Sunday 21 Dec 2014 (Local Time) from KCLS Reporting Station
Drizzle Drizzle  
Wind Chill: 52°   Ceiling: 3000
Heat Index: 52°   Visibility: 7mi
Dew Point: 52°   Wind: 5mph
Humidity: 100%   Direction: NA
Pressure: 29.79"   Gusts: 12mph
Location:  46.6561°N, 122.993°W
Report Text: KCLS 211055Z AUTO VRB04G10KT 7SM -DZ SCT025 BKN030 OVC037 11/11 A2979 RMK AO2
Loading
Personal Weather Stations






























Interactive Weather Map New forecast layout! Learn more

10-Day Weather Forecast

Advertisements
Track Severe Weather on mobile